sensor_id;sensor_type;location;lat;lon;timestamp;temperature;humidity
7325;DHT22;3703;48.016;7.802;2023-07-20T00:00:26;25.40;98.50
7325;DHT22;3703;48.016;7.802;2023-07-20T00:03:10;25.40;98.60
7325;DHT22;3703;48.016;7.802;2023-07-20T00:05:42;25.40;99.00
7325;DHT22;3703;48.016;7.802;2023-07-20T00:08:12;25.40;98.90
7325;DHT22;3703;48.016;7.802;2023-07-20T00:10:40;25.40;99.10
7325;DHT22;3703;48.016;7.802;2023-07-20T00:13:08;25.30;99.00
7325;DHT22;3703;48.016;7.802;2023-07-20T00:15:35;25.30;98.80
7325;DHT22;3703;48.016;7.802;2023-07-20T00:18:03;25.30;99.10
7325;DHT22;3703;48.016;7.802;2023-07-20T00:20:30;25.30;99.20
7325;DHT22;3703;48.016;7.802;2023-07-20T00:22:58;25.20;99.10
7325;DHT22;3703;48.016;7.802;2023-07-20T00:25:26;25.30;99.70
7325;DHT22;3703;48.016;7.802;2023-07-20T00:27:53;25.20;99.90
7325;DHT22;3703;48.016;7.802;2023-07-20T00:30:21;25.20;99.90
7325;DHT22;3703;48.016;7.802;2023-07-20T00:32:48;25.20;99.90
7325;DHT22;3703;48.016;7.802;2023-07-20T00:35:15;25.20;99.90
7325;DHT22;3703;48.016;7.802;2023-07-20T00:37:43;25.10;99.90
7325;DHT22;3703;48.016;7.802;2023-07-20T00:40:10;25.10;99.90
7325;DHT22;3703;48.016;7.802;2023-07-20T00:42:40;25.10;99.90
7325;DHT22;3703;48.016;7.802;2023-07-20T00:45:07;25.10;99.90
7325;DHT22;3703;48.016;7.802;2023-07-20T00:47:36;25.10;99.90
7325;DHT22;3703;48.016;7.802;2023-07-20T00:50:05;25.00;99.90
7325;DHT22;3703;48.016;7.802;2023-07-20T00:52:34;25.00;99.90
7325;DHT22;3703;48.016;7.802;2023-07-20T00:55:02;25.00;99.90
7325;DHT22;3703;48.016;7.802;2023-07-20T00:57:30;25.00;99.90
7325;DHT22;3703;48.016;7.802;2023-07-20T01:00:01;25.00;99.90
7325;DHT22;3703;48.016;7.802;2023-07-20T01:02:29;25.00;99.90
7325;DHT22;3703;48.016;7.802;2023-07-20T01:04:56;25.00;99.90
7325;DHT22;3703;48.016;7.802;2023-07-20T01:07:29;24.90;99.90
7325;DHT22;3703;48.016;7.802;2023-07-20T01:10:01;25.00;99.90
7325;DHT22;3703;48.016;7.802;2023-07-20T01:12:47;25.00;99.90
7325;DHT22;3703;48.016;7.802;2023-07-20T01:15:16;24.90;99.90
7325;DHT22;3703;48.016;7.802;2023-07-20T01:17:43;24.90;99.90
7325;DHT22;3703;48.016;7.802;2023-07-20T01:20:14;24.80;99.90
7325;DHT22;3703;48.016;7.802;2023-07-20T01:29:33;24.70;99.90
7325;DHT22;3703;48.016;7.802;2023-07-20T01:32:10;25.10;99.90
7325;DHT22;3703;48.016;7.802;2023-07-20T01:34:39;24.80;99.90
7325;DHT22;3703;48.016;7.802;2023-07-20T01:37:08;24.80;99.90
7325;DHT22;3703;48.016;7.802;2023-07-20T01:39:36;24.80;99.90
7325;DHT22;3703;48.016;7.802;2023-07-20T01:42:05;24.70;99.90
7325;DHT22;3703;48.016;7.802;2023-07-20T01:44:32;24.70;99.90
7325;DHT22;3703;48.016;7.802;2023-07-20T01:47:00;24.60;99.90
7325;DHT22;3703;48.016;7.802;2023-07-20T01:49:29;24.60;99.90
7325;DHT22;3703;48.016;7.802;2023-07-20T01:51:56;24.90;99.90
7325;DHT22;3703;48.016;7.802;2023-07-20T01:54:23;24.60;99.90
7325;DHT22;3703;48.016;7.802;2023-07-20T01:56:50;24.50;99.90
7325;DHT22;3703;48.016;7.802;2023-07-20T01:59:17;24.50;99.90
7325;DHT22;3703;48.016;7.802;2023-07-20T02:01:44;24.50;99.90
7325;DHT22;3703;48.016;7.802;2023-07-20T02:04:12;24.50;99.90
7325;DHT22;3703;48.016;7.802;2023-07-20T02:06:40;24.40;99.90
7325;DHT22;3703;48.016;7.802;2023-07-20T02:09:08;23.90;99.90
7325;DHT22;3703;48.016;7.802;2023-07-20T02:11:35;24.40;99.90
7325;DHT22;3703;48.016;7.802;2023-07-20T02:14:02;24.40;99.90
7325;DHT22;3703;48.016;7.802;2023-07-20T02:16:29;24.40;99.90
7325;DHT22;3703;48.016;7.802;2023-07-20T02:18:56;25.80;99.90
7325;DHT22;3703;48.016;7.802;2023-07-20T02:21:23;24.40;99.90
7325;DHT22;3703;48.016;7.802;2023-07-20T02:23:52;24.40;99.90
7325;DHT22;3703;48.016;7.802;2023-07-20T02:26:19;24.30;99.90
7325;DHT22;3703;48.016;7.802;2023-07-20T02:28:46;24.30;99.90
7325;DHT22;3703;48.016;7.802;2023-07-20T02:31:13;24.30;99.90
7325;DHT22;3703;48.016;7.802;2023-07-20T02:33:40;24.30;99.90
7325;DHT22;3703;48.016;7.802;2023-07-20T02:36:07;23.80;99.90
7325;DHT22;3703;48.016;7.802;2023-07-20T02:38:34;24.30;99.90
7325;DHT22;3703;48.016;7.802;2023-07-20T02:41:03;24.30;99.90
7325;DHT22;3703;48.016;7.802;2023-07-20T02:43:30;24.20;99.90
7325;DHT22;3703;48.016;7.802;2023-07-20T02:45:57;24.20;99.90
7325;DHT22;3703;48.016;7.802;2023-07-20T02:48:24;24.10;99.90
7325;DHT22;3703;48.016;7.802;2023-07-20T02:50:51;24.00;99.90
7325;DHT22;3703;48.016;7.802;2023-07-20T02:53:18;23.90;99.90
7325;DHT22;3703;48.016;7.802;2023-07-20T02:55:45;23.80;99.90
7325;DHT22;3703;48.016;7.802;2023-07-20T02:58:14;23.80;99.90
7325;DHT22;3703;48.016;7.802;2023-07-20T03:00:42;23.70;99.90
7325;DHT22;3703;48.016;7.802;2023-07-20T03:03:10;23.70;99.90
7325;DHT22;3703;48.016;7.802;2023-07-20T03:05:40;23.70;99.90
7325;DHT22;3703;48.016;7.802;2023-07-20T03:08:07;23.70;99.90
7325;DHT22;3703;48.016;7.802;2023-07-20T03:10:39;23.60;99.90
7325;DHT22;3703;48.016;7.802;2023-07-20T03:13:07;23.60;99.90
7325;DHT22;3703;48.016;7.802;2023-07-20T03:15:35;23.60;99.90
7325;DHT22;3703;48.016;7.802;2023-07-20T03:18:03;23.60;99.90
7325;DHT22;3703;48.016;7.802;2023-07-20T03:20:31;23.50;99.90
7325;DHT22;3703;48.016;7.802;2023-07-20T03:23:00;23.40;99.90
7325;DHT22;3703;48.016;7.802;2023-07-20T03:25:27;23.30;99.90
7325;DHT22;3703;48.016;7.802;2023-07-20T03:27:54;23.20;99.90
7325;DHT22;3703;48.016;7.802;2023-07-20T03:30:21;23.30;99.90
7325;DHT22;3703;48.016;7.802;2023-07-20T03:32:50;23.20;99.90
7325;DHT22;3703;48.016;7.802;2023-07-20T03:35:17;23.20;99.90
7325;DHT22;3703;48.016;7.802;2023-07-20T03:37:44;23.50;99.90
7325;DHT22;3703;48.016;7.802;2023-07-20T03:40:11;22.20;99.90
7325;DHT22;3703;48.016;7.802;2023-07-20T03:42:41;23.20;99.90
7325;DHT22;3703;48.016;7.802;2023-07-20T03:45:08;23.20;99.90
7325;DHT22;3703;48.016;7.802;2023-07-20T03:47:36;23.10;99.90
7325;DHT22;3703;48.016;7.802;2023-07-20T03:50:05;23.00;99.90
7325;DHT22;3703;48.016;7.802;2023-07-20T03:52:36;22.90;99.90
7325;DHT22;3703;48.016;7.802;2023-07-20T03:55:03;22.90;99.90
7325;DHT22;3703;48.016;7.802;2023-07-20T03:57:32;22.90;99.90
7325;DHT22;3703;48.016;7.802;2023-07-20T03:59:59;22.90;1.00
7325;DHT22;3703;48.016;7.802;2023-07-20T04:02:26;23.00;1.00
7325;DHT22;3703;48.016;7.802;2023-07-20T04:04:53;23.00;1.00
7325;DHT22;3703;48.016;7.802;2023-07-20T04:07:22;23.00;1.00
7325;DHT22;3703;48.016;7.802;2023-07-20T04:09:49;23.00;1.00
7325;DHT22;3703;48.016;7.802;2023-07-20T04:12:16;22.80;1.00
7325;DHT22;3703;48.016;7.802;2023-07-20T04:14:43;22.60;99.90
7325;DHT22;3703;48.016;7.802;2023-07-20T04:17:10;22.70;99.90
7325;DHT22;3703;48.016;7.802;2023-07-20T04:19:38;22.80;1.00
7325;DHT22;3703;48.016;7.802;2023-07-20T04:22:05;22.70;1.00
7325;DHT22;3703;48.016;7.802;2023-07-20T04:24:34;22.60;41.70
7325;DHT22;3703;48.016;7.802;2023-07-20T04:27:02;22.70;99.90
7325;DHT22;3703;48.016;7.802;2023-07-20T04:29:29;22.80;1.00
7325;DHT22;3703;48.016;7.802;2023-07-20T04:31:57;22.90;99.90
7325;DHT22;3703;48.016;7.802;2023-07-20T04:34:24;22.90;1.00
7325;DHT22;3703;48.016;7.802;2023-07-20T04:36:51;22.80;1.00
7325;DHT22;3703;48.016;7.802;2023-07-20T04:39:18;22.90;1.00
7325;DHT22;3703;48.016;7.802;2023-07-20T04:41:47;23.10;1.00
7325;DHT22;3703;48.016;7.802;2023-07-20T04:44:14;23.10;1.00
7325;DHT22;3703;48.016;7.802;2023-07-20T04:46:41;23.10;99.90
7325;DHT22;3703;48.016;7.802;2023-07-20T04:49:08;23.20;1.00
7325;DHT22;3703;48.016;7.802;2023-07-20T04:51:35;23.20;1.00
7325;DHT22;3703;48.016;7.802;2023-07-20T04:54:02;23.10;1.00
7325;DHT22;3703;48.016;7.802;2023-07-20T04:56:29;23.00;1.00
7325;DHT22;3703;48.016;7.802;2023-07-20T04:58:58;22.90;16.20
7325;DHT22;3703;48.016;7.802;2023-07-20T05:01:25;22.70;47.60
7325;DHT22;3703;48.016;7.802;2023-07-20T05:03:53;22.30;1.00
7325;DHT22;3703;48.016;7.802;2023-07-20T05:06:20;22.60;1.00
7325;DHT22;3703;48.016;7.802;2023-07-20T05:08:47;22.80;99.90
7325;DHT22;3703;48.016;7.802;2023-07-20T05:11:15;23.00;99.90
7325;DHT22;3703;48.016;7.802;2023-07-20T05:14:02;23.00;99.90
7325;DHT22;3703;48.016;7.802;2023-07-20T05:16:48;23.00;99.90
7325;DHT22;3703;48.016;7.802;2023-07-20T05:19:33;22.90;99.90
7325;DHT22;3703;48.016;7.802;2023-07-20T05:22:19;22.80;9.00
7325;DHT22;3703;48.016;7.802;2023-07-20T05:25:06;22.90;1.00
7325;DHT22;3703;48.016;7.802;2023-07-20T05:27:53;22.90;1.00
7325;DHT22;3703;48.016;7.802;2023-07-20T05:30:41;22.90;99.90
7325;DHT22;3703;48.016;7.802;2023-07-20T05:33:27;23.10;9.70
7325;DHT22;3703;48.016;7.802;2023-07-20T05:36:12;23.10;1.00
7325;DHT22;3703;48.016;7.802;2023-07-20T05:38:58;23.20;1.00
7325;DHT22;3703;48.016;7.802;2023-07-20T05:41:44;23.20;1.00
7325;DHT22;3703;48.016;7.802;2023-07-20T05:44:29;23.20;99.90
7325;DHT22;3703;48.016;7.802;2023-07-20T05:47:16;23.30;1.00
7325;DHT22;3703;48.016;7.802;2023-07-20T05:50:02;23.30;99.90
7325;DHT22;3703;48.016;7.802;2023-07-20T05:52:49;23.40;99.90
7325;DHT22;3703;48.016;7.802;2023-07-20T05:55:37;23.40;99.90
7325;DHT22;3703;48.016;7.802;2023-07-20T05:58:24;23.40;99.90
7325;DHT22;3703;48.016;7.802;2023-07-20T06:01:09;23.50;1.00
7325;DHT22;3703;48.016;7.802;2023-07-20T06:03:56;23.60;99.90
7325;DHT22;3703;48.016;7.802;2023-07-20T06:06:42;23.80;99.90
7325;DHT22;3703;48.016;7.802;2023-07-20T06:09:28;23.80;1.00
7325;DHT22;3703;48.016;7.802;2023-07-20T06:12:14;23.70;1.00
7325;DHT22;3703;48.016;7.802;2023-07-20T06:15:02;23.80;1.00
7325;DHT22;3703;48.016;7.802;2023-07-20T06:17:49;23.90;99.90
7325;DHT22;3703;48.016;7.802;2023-07-20T06:20:36;23.90;99.90
7325;DHT22;3703;48.016;7.802;2023-07-20T06:23:22;24.00;1.00
7325;DHT22;3703;48.016;7.802;2023-07-20T06:26:07;24.10;1.00
7325;DHT22;3703;48.016;7.802;2023-07-20T06:28:53;24.20;99.90
7325;DHT22;3703;48.016;7.802;2023-07-20T06:31:39;24.20;99.90
7325;DHT22;3703;48.016;7.802;2023-07-20T06:34:24;24.30;1.00
7325;DHT22;3703;48.016;7.802;2023-07-20T06:37:11;24.40;1.00
7325;DHT22;3703;48.016;7.802;2023-07-20T06:39:57;24.40;1.00
7325;DHT22;3703;48.016;7.802;2023-07-20T06:42:43;24.50;1.00
7325;DHT22;3703;48.016;7.802;2023-07-20T06:45:30;24.30;1.00
7325;DHT22;3703;48.016;7.802;2023-07-20T06:48:16;24.40;1.00
7325;DHT22;3703;48.016;7.802;2023-07-20T06:51:01;24.30;1.00
7325;DHT22;3703;48.016;7.802;2023-07-20T06:53:49;24.50;1.00
7325;DHT22;3703;48.016;7.802;2023-07-20T06:56:35;24.60;1.00
7325;DHT22;3703;48.016;7.802;2023-07-20T06:59:20;24.30;1.00
7325;DHT22;3703;48.016;7.802;2023-07-20T07:02:06;24.80;99.90
7325;DHT22;3703;48.016;7.802;2023-07-20T07:04:52;25.00;99.90
7325;DHT22;3703;48.016;7.802;2023-07-20T07:07:39;25.70;99.90
7325;DHT22;3703;48.016;7.802;2023-07-20T07:10:26;25.10;1.00
7325;DHT22;3703;48.016;7.802;2023-07-20T07:13:11;25.10;1.00
7325;DHT22;3703;48.016;7.802;2023-07-20T07:15:57;25.30;1.00
7325;DHT22;3703;48.016;7.802;2023-07-20T07:18:43;25.50;99.90
7325;DHT22;3703;48.016;7.802;2023-07-20T07:21:29;25.30;99.90
7325;DHT22;3703;48.016;7.802;2023-07-20T07:24:15;25.30;99.90
7325;DHT22;3703;48.016;7.802;2023-07-20T07:27:02;25.00;99.90
7325;DHT22;3703;48.016;7.802;2023-07-20T07:29:48;25.00;99.90
7325;DHT22;3703;48.016;7.802;2023-07-20T07:32:34;25.10;99.90
7325;DHT22;3703;48.016;7.802;2023-07-20T07:35:20;25.30;99.90
7325;DHT22;3703;48.016;7.802;2023-07-20T07:38:06;25.50;58.80
7325;DHT22;3703;48.016;7.802;2023-07-20T07:40:52;26.20;1.00
7325;DHT22;3703;48.016;7.802;2023-07-20T07:43:39;25.50;1.00
7325;DHT22;3703;48.016;7.802;2023-07-20T07:46:25;25.50;1.00
7325;DHT22;3703;48.016;7.802;2023-07-20T07:49:10;25.40;1.00
7325;DHT22;3703;48.016;7.802;2023-07-20T07:51:56;25.70;1.00
7325;DHT22;3703;48.016;7.802;2023-07-20T07:54:42;25.40;1.00
7325;DHT22;3703;48.016;7.802;2023-07-20T07:57:27;25.40;1.00
7325;DHT22;3703;48.016;7.802;2023-07-20T08:00:16;25.40;1.00
7325;DHT22;3703;48.016;7.802;2023-07-20T08:03:03;25.50;1.00
7325;DHT22;3703;48.016;7.802;2023-07-20T08:05:49;25.60;1.00
7325;DHT22;3703;48.016;7.802;2023-07-20T08:08:35;25.20;1.00
7325;DHT22;3703;48.016;7.802;2023-07-20T08:11:20;25.90;1.00
7325;DHT22;3703;48.016;7.802;2023-07-20T08:14:06;26.40;1.00
7325;DHT22;3703;48.016;7.802;2023-07-20T08:16:53;26.40;1.00
7325;DHT22;3703;48.016;7.802;2023-07-20T08:19:39;26.40;1.00
7325;DHT22;3703;48.016;7.802;2023-07-20T08:22:26;26.50;1.00
7325;DHT22;3703;48.016;7.802;2023-07-20T08:25:11;26.90;1.00
7325;DHT22;3703;48.016;7.802;2023-07-20T08:27:57;26.40;99.90
7325;DHT22;3703;48.016;7.802;2023-07-20T08:30:46;26.20;99.90
7325;DHT22;3703;48.016;7.802;2023-07-20T08:33:34;26.30;1.00
7325;DHT22;3703;48.016;7.802;2023-07-20T08:36:19;25.70;99.90
7325;DHT22;3703;48.016;7.802;2023-07-20T08:39:05;25.90;99.90
7325;DHT22;3703;48.016;7.802;2023-07-20T08:41:52;26.00;1.00
7325;DHT22;3703;48.016;7.802;2023-07-20T08:44:39;26.00;1.00
7325;DHT22;3703;48.016;7.802;2023-07-20T08:47:27;26.20;1.00
7325;DHT22;3703;48.016;7.802;2023-07-20T08:50:15;26.20;99.90
7325;DHT22;3703;48.016;7.802;2023-07-20T08:53:01;25.70;99.90
7325;DHT22;3703;48.016;7.802;2023-07-20T08:55:50;25.80;99.90
7325;DHT22;3703;48.016;7.802;2023-07-20T08:58:37;25.70;99.90
7325;DHT22;3703;48.016;7.802;2023-07-20T09:01:25;25.70;99.90
7325;DHT22;3703;48.016;7.802;2023-07-20T09:04:12;25.80;99.90
7325;DHT22;3703;48.016;7.802;2023-07-20T09:07:01;25.90;99.90
7325;DHT22;3703;48.016;7.802;2023-07-20T09:09:47;25.50;99.90
7325;DHT22;3703;48.016;7.802;2023-07-20T09:12:35;25.70;99.90
7325;DHT22;3703;48.016;7.802;2023-07-20T09:15:22;25.80;99.90
7325;DHT22;3703;48.016;7.802;2023-07-20T09:18:08;26.10;99.90
7325;DHT22;3703;48.016;7.802;2023-07-20T09:20:58;25.90;99.90
7325;DHT22;3703;48.016;7.802;2023-07-20T09:23:46;26.30;99.90
7325;DHT22;3703;48.016;7.802;2023-07-20T09:26:40;25.60;99.90
7325;DHT22;3703;48.016;7.802;2023-07-20T09:29:27;25.60;99.90
7325;DHT22;3703;48.016;7.802;2023-07-20T09:32:18;25.80;99.90
7325;DHT22;3703;48.016;7.802;2023-07-20T09:35:06;26.00;99.90
7325;DHT22;3703;48.016;7.802;2023-07-20T09:37:54;26.30;99.90
7325;DHT22;3703;48.016;7.802;2023-07-20T09:40:42;26.30;99.90
7325;DHT22;3703;48.016;7.802;2023-07-20T09:43:28;26.50;99.90
7325;DHT22;3703;48.016;7.802;2023-07-20T09:46:15;26.70;99.90
7325;DHT22;3703;48.016;7.802;2023-07-20T09:49:01;26.80;99.90
7325;DHT22;3703;48.016;7.802;2023-07-20T09:51:47;27.00;99.90
7325;DHT22;3703;48.016;7.802;2023-07-20T09:54:34;26.90;99.90
7325;DHT22;3703;48.016;7.802;2023-07-20T09:57:22;26.80;99.90
7325;DHT22;3703;48.016;7.802;2023-07-20T10:00:08;26.80;99.90
7325;DHT22;3703;48.016;7.802;2023-07-20T10:02:58;26.20;99.90
7325;DHT22;3703;48.016;7.802;2023-07-20T10:05:48;26.40;99.90
7325;DHT22;3703;48.016;7.802;2023-07-20T10:08:39;26.50;99.90
7325;DHT22;3703;48.016;7.802;2023-07-20T10:11:30;27.00;99.90
7325;DHT22;3703;48.016;7.802;2023-07-20T10:14:20;27.10;99.90
7325;DHT22;3703;48.016;7.802;2023-07-20T10:17:07;27.20;99.90
7325;DHT22;3703;48.016;7.802;2023-07-20T10:19:57;27.30;99.90
7325;DHT22;3703;48.016;7.802;2023-07-20T10:22:48;27.20;99.90
7325;DHT22;3703;48.016;7.802;2023-07-20T10:25:35;27.60;99.90
7325;DHT22;3703;48.016;7.802;2023-07-20T10:28:23;27.80;99.90
7325;DHT22;3703;48.016;7.802;2023-07-20T10:31:12;27.60;99.90
7325;DHT22;3703;48.016;7.802;2023-07-20T10:33:58;27.60;99.90
7325;DHT22;3703;48.016;7.802;2023-07-20T10:36:45;27.70;98.60
7325;DHT22;3703;48.016;7.802;2023-07-20T10:39:36;27.40;1.00
7325;DHT22;3703;48.016;7.802;2023-07-20T10:42:21;27.20;1.00
7325;DHT22;3703;48.016;7.802;2023-07-20T10:45:08;27.00;1.00
7325;DHT22;3703;48.016;7.802;2023-07-20T10:47:57;27.40;1.00
7325;DHT22;3703;48.016;7.802;2023-07-20T10:50:43;27.70;53.70
7325;DHT22;3703;48.016;7.802;2023-07-20T10:53:29;27.50;30.50
7325;DHT22;3703;48.016;7.802;2023-07-20T10:56:06;27.60;84.00
7325;DHT22;3703;48.016;7.802;2023-07-20T10:58:34;27.90;75.40
7325;DHT22;3703;48.016;7.802;2023-07-20T11:01:03;27.80;30.90
7325;DHT22;3703;48.016;7.802;2023-07-20T11:03:34;27.70;46.60
7325;DHT22;3703;48.016;7.802;2023-07-20T11:06:29;27.80;48.10
7325;DHT22;3703;48.016;7.802;2023-07-20T11:09:05;27.40;1.00
7325;DHT22;3703;48.016;7.802;2023-07-20T11:11:34;27.20;1.00
7325;DHT22;3703;48.016;7.802;2023-07-20T11:14:04;27.10;2.70
7325;DHT22;3703;48.016;7.802;2023-07-20T11:16:34;27.70;21.60
7325;DHT22;3703;48.016;7.802;2023-07-20T11:19:04;28.20;3.40
7325;DHT22;3703;48.016;7.802;2023-07-20T11:21:36;28.30;1.00
7325;DHT22;3703;48.016;7.802;2023-07-20T11:24:05;28.60;7.20
7325;DHT22;3703;48.016;7.802;2023-07-20T11:26:42;28.60;1.00
7325;DHT22;3703;48.016;7.802;2023-07-20T11:29:09;28.20;1.00
7325;DHT22;3703;48.016;7.802;2023-07-20T11:31:38;26.80;1.00
7325;DHT22;3703;48.016;7.802;2023-07-20T11:34:09;26.70;1.00
7325;DHT22;3703;48.016;7.802;2023-07-20T11:36:40;26.90;1.00
7325;DHT22;3703;48.016;7.802;2023-07-20T11:39:09;27.60;14.60
7325;DHT22;3703;48.016;7.802;2023-07-20T11:41:36;28.10;61.00
7325;DHT22;3703;48.016;7.802;2023-07-20T11:44:05;28.70;9.60
7325;DHT22;3703;48.016;7.802;2023-07-20T11:46:33;28.90;1.00
7325;DHT22;3703;48.016;7.802;2023-07-20T11:49:01;29.40;1.00
7325;DHT22;3703;48.016;7.802;2023-07-20T11:51:31;29.50;1.00
7325;DHT22;3703;48.016;7.802;2023-07-20T11:53:58;29.20;1.00
7325;DHT22;3703;48.016;7.802;2023-07-20T11:56:26;29.30;1.00
7325;DHT22;3703;48.016;7.802;2023-07-20T11:58:58;29.30;1.00
7325;DHT22;3703;48.016;7.802;2023-07-20T12:01:28;28.90;1.00
7325;DHT22;3703;48.016;7.802;2023-07-20T12:03:57;28.80;1.00
7325;DHT22;3703;48.016;7.802;2023-07-20T12:06:27;29.00;1.00
7325;DHT22;3703;48.016;7.802;2023-07-20T12:08:57;29.40;1.00
7325;DHT22;3703;48.016;7.802;2023-07-20T12:11:32;29.60;1.00
7325;DHT22;3703;48.016;7.802;2023-07-20T12:13:59;29.40;1.00
7325;DHT22;3703;48.016;7.802;2023-07-20T12:16:28;29.80;1.00
7325;DHT22;3703;48.016;7.802;2023-07-20T12:19:00;30.10;1.00
7325;DHT22;3703;48.016;7.802;2023-07-20T12:21:27;30.50;1.00
7325;DHT22;3703;48.016;7.802;2023-07-20T12:23:56;30.90;1.00
7325;DHT22;3703;48.016;7.802;2023-07-20T12:26:24;31.00;1.00
7325;DHT22;3703;48.016;7.802;2023-07-20T12:28:52;30.60;1.00
7325;DHT22;3703;48.016;7.802;2023-07-20T12:31:19;28.80;1.00
7325;DHT22;3703;48.016;7.802;2023-07-20T12:33:48;28.40;1.00
7325;DHT22;3703;48.016;7.802;2023-07-20T12:36:15;27.40;1.00
7325;DHT22;3703;48.016;7.802;2023-07-20T12:38:43;27.00;1.00
7325;DHT22;3703;48.016;7.802;2023-07-20T12:41:13;27.60;1.00
7325;DHT22;3703;48.016;7.802;2023-07-20T12:43:40;28.30;1.00
7325;DHT22;3703;48.016;7.802;2023-07-20T12:46:08;29.10;1.00
7325;DHT22;3703;48.016;7.802;2023-07-20T12:48:37;29.70;1.00
7325;DHT22;3703;48.016;7.802;2023-07-20T12:51:06;30.20;1.00
7325;DHT22;3703;48.016;7.802;2023-07-20T12:53:34;30.50;1.00
7325;DHT22;3703;48.016;7.802;2023-07-20T12:56:02;30.60;1.00
7325;DHT22;3703;48.016;7.802;2023-07-20T12:58:30;31.00;1.00
7325;DHT22;3703;48.016;7.802;2023-07-20T13:00:57;31.40;1.00
7325;DHT22;3703;48.016;7.802;2023-07-20T13:03:25;31.50;1.00
7325;DHT22;3703;48.016;7.802;2023-07-20T13:05:52;31.50;1.00
7325;DHT22;3703;48.016;7.802;2023-07-20T13:08:19;31.50;1.00
7325;DHT22;3703;48.016;7.802;2023-07-20T13:10:46;31.60;1.00
7325;DHT22;3703;48.016;7.802;2023-07-20T13:13:14;31.60;1.00
7325;DHT22;3703;48.016;7.802;2023-07-20T13:15:44;31.90;1.00
7325;DHT22;3703;48.016;7.802;2023-07-20T13:18:12;32.20;1.00
7325;DHT22;3703;48.016;7.802;2023-07-20T13:20:39;32.50;1.00
7325;DHT22;3703;48.016;7.802;2023-07-20T13:23:06;32.20;1.00
7325;DHT22;3703;48.016;7.802;2023-07-20T13:25:33;32.40;1.00
7325;DHT22;3703;48.016;7.802;2023-07-20T13:28:00;32.00;1.00
7325;DHT22;3703;48.016;7.802;2023-07-20T13:30:27;32.30;1.00
7325;DHT22;3703;48.016;7.802;2023-07-20T13:32:56;32.40;1.00
7325;DHT22;3703;48.016;7.802;2023-07-20T13:35:23;32.60;1.00
7325;DHT22;3703;48.016;7.802;2023-07-20T13:37:50;32.70;1.00
7325;DHT22;3703;48.016;7.802;2023-07-20T13:40:17;32.80;99.90
7325;DHT22;3703;48.016;7.802;2023-07-20T13:42:45;32.80;99.90
7325;DHT22;3703;48.016;7.802;2023-07-20T13:45:12;32.80;99.90
7325;DHT22;3703;48.016;7.802;2023-07-20T13:47:39;33.00;99.90
7325;DHT22;3703;48.016;7.802;2023-07-20T13:50:08;33.10;99.90
7325;DHT22;3703;48.016;7.802;2023-07-20T13:52:36;33.30;99.90
7325;DHT22;3703;48.016;7.802;2023-07-20T13:55:04;33.20;99.90
7325;DHT22;3703;48.016;7.802;2023-07-20T13:57:31;32.90;99.90
7325;DHT22;3703;48.016;7.802;2023-07-20T13:59:58;32.80;99.90
7325;DHT22;3703;48.016;7.802;2023-07-20T14:02:27;32.70;99.90
7325;DHT22;3703;48.016;7.802;2023-07-20T14:04:54;32.80;99.90
7325;DHT22;3703;48.016;7.802;2023-07-20T14:07:23;32.90;99.90
7325;DHT22;3703;48.016;7.802;2023-07-20T14:09:50;32.60;99.90
7325;DHT22;3703;48.016;7.802;2023-07-20T14:12:17;32.40;99.90
7325;DHT22;3703;48.016;7.802;2023-07-20T14:14:45;32.60;99.90
7325;DHT22;3703;48.016;7.802;2023-07-20T14:17:13;32.80;99.90
7325;DHT22;3703;48.016;7.802;2023-07-20T14:19:40;32.80;99.90
7325;DHT22;3703;48.016;7.802;2023-07-20T14:22:07;32.80;99.90
7325;DHT22;3703;48.016;7.802;2023-07-20T14:24:36;33.10;99.90
7325;DHT22;3703;48.016;7.802;2023-07-20T14:27:03;32.90;99.90
7325;DHT22;3703;48.016;7.802;2023-07-20T14:29:31;33.00;99.90
7325;DHT22;3703;48.016;7.802;2023-07-20T14:32:01;33.20;99.90
7325;DHT22;3703;48.016;7.802;2023-07-20T14:34:31;33.30;99.90
7325;DHT22;3703;48.016;7.802;2023-07-20T14:36:59;33.30;99.90
7325;DHT22;3703;48.016;7.802;2023-07-20T14:39:26;33.60;99.90
7325;DHT22;3703;48.016;7.802;2023-07-20T14:41:55;33.70;99.90
7325;DHT22;3703;48.016;7.802;2023-07-20T14:44:22;33.50;99.90
7325;DHT22;3703;48.016;7.802;2023-07-20T14:46:50;33.40;99.90
7325;DHT22;3703;48.016;7.802;2023-07-20T14:49:17;33.20;99.90
7325;DHT22;3703;48.016;7.802;2023-07-20T14:51:44;32.90;99.90
7325;DHT22;3703;48.016;7.802;2023-07-20T14:54:13;33.00;99.90
7325;DHT22;3703;48.016;7.802;2023-07-20T14:56:48;32.70;99.90
7325;DHT22;3703;48.016;7.802;2023-07-20T14:59:18;32.70;99.90
7325;DHT22;3703;48.016;7.802;2023-07-20T15:01:45;32.70;99.90
7325;DHT22;3703;48.016;7.802;2023-07-20T15:04:12;32.40;99.90
7325;DHT22;3703;48.016;7.802;2023-07-20T15:06:39;32.10;99.90
7325;DHT22;3703;48.016;7.802;2023-07-20T15:09:07;32.00;99.90
7325;DHT22;3703;48.016;7.802;2023-07-20T15:11:36;32.30;99.90
7325;DHT22;3703;48.016;7.802;2023-07-20T15:14:03;31.80;99.90
7325;DHT22;3703;48.016;7.802;2023-07-20T15:16:32;31.60;99.90
7325;DHT22;3703;48.016;7.802;2023-07-20T15:19:01;31.60;99.90
7325;DHT22;3703;48.016;7.802;2023-07-20T15:21:28;31.60;99.90
7325;DHT22;3703;48.016;7.802;2023-07-20T15:23:57;31.90;99.90
7325;DHT22;3703;48.016;7.802;2023-07-20T15:26:24;32.10;99.90
7325;DHT22;3703;48.016;7.802;2023-07-20T15:28:51;32.30;99.90
7325;DHT22;3703;48.016;7.802;2023-07-20T15:31:18;32.20;99.90
7325;DHT22;3703;48.016;7.802;2023-07-20T15:33:47;32.30;99.90
7325;DHT22;3703;48.016;7.802;2023-07-20T15:36:14;32.40;99.90
7325;DHT22;3703;48.016;7.802;2023-07-20T15:38:41;32.40;99.90
7325;DHT22;3703;48.016;7.802;2023-07-20T15:41:08;32.20;99.90
7325;DHT22;3703;48.016;7.802;2023-07-20T15:43:36;32.20;99.90
7325;DHT22;3703;48.016;7.802;2023-07-20T15:49:15;32.10;99.90
7325;DHT22;3703;48.016;7.802;2023-07-20T15:51:42;32.10;99.90
7325;DHT22;3703;48.016;7.802;2023-07-20T15:54:12;31.90;99.90
7325;DHT22;3703;48.016;7.802;2023-07-20T15:56:41;31.90;99.90
7325;DHT22;3703;48.016;7.802;2023-07-20T15:59:10;31.90;99.90
7325;DHT22;3703;48.016;7.802;2023-07-20T16:01:39;31.70;99.90
7325;DHT22;3703;48.016;7.802;2023-07-20T16:04:08;31.80;99.90
7325;DHT22;3703;48.016;7.802;2023-07-20T16:06:37;31.70;99.90
7325;DHT22;3703;48.016;7.802;2023-07-20T16:09:05;31.50;99.90
7325;DHT22;3703;48.016;7.802;2023-07-20T16:11:32;31.60;99.90
7325;DHT22;3703;48.016;7.802;2023-07-20T16:14:00;31.60;99.90
7325;DHT22;3703;48.016;7.802;2023-07-20T16:16:29;31.50;99.90
7325;DHT22;3703;48.016;7.802;2023-07-20T16:18:57;31.50;99.90
7325;DHT22;3703;48.016;7.802;2023-07-20T16:21:24;31.10;99.90
7325;DHT22;3703;48.016;7.802;2023-07-20T16:23:53;30.80;99.90
7325;DHT22;3703;48.016;7.802;2023-07-20T16:26:20;30.90;99.90
7325;DHT22;3703;48.016;7.802;2023-07-20T16:28:47;31.00;99.90
7325;DHT22;3703;48.016;7.802;2023-07-20T16:31:15;31.00;99.90
7325;DHT22;3703;48.016;7.802;2023-07-20T16:33:44;31.10;99.90
7325;DHT22;3703;48.016;7.802;2023-07-20T16:36:12;30.90;99.90
7325;DHT22;3703;48.016;7.802;2023-07-20T16:38:39;30.70;99.90
7325;DHT22;3703;48.016;7.802;2023-07-20T16:41:09;30.50;99.90
7325;DHT22;3703;48.016;7.802;2023-07-20T16:43:38;30.80;99.90
7325;DHT22;3703;48.016;7.802;2023-07-20T16:46:06;30.50;99.90
7325;DHT22;3703;48.016;7.802;2023-07-20T16:48:34;30.50;99.90
7325;DHT22;3703;48.016;7.802;2023-07-20T16:51:03;30.50;99.90
7325;DHT22;3703;48.016;7.802;2023-07-20T16:53:30;30.60;99.90
7325;DHT22;3703;48.016;7.802;2023-07-20T16:55:57;30.60;99.90
7325;DHT22;3703;48.016;7.802;2023-07-20T16:58:27;30.50;99.90
7325;DHT22;3703;48.016;7.802;2023-07-20T17:01:04;30.20;99.90